createdAt,value
2023-04-18T00:04:47.756Z,96360.50
2023-04-18T00:14:52.123Z,96332.00
2023-04-18T00:24:54.637Z,96333.91
2023-04-18T00:34:58.336Z,96319.53
2023-04-18T00:45:00.893Z,96320.91
2023-04-18T00:55:05.125Z,96321.94
2023-04-18T01:05:08.065Z,96312.44
2023-04-18T01:15:12.493Z,96304.81
2023-04-18T01:25:16.289Z,96294.81
2023-04-18T01:35:18.849Z,96286.72
2023-04-18T01:45:22.931Z,96286.88
2023-04-18T01:55:25.293Z,96280.31
2023-04-18T02:15:56.580Z,96270.16
2023-04-18T02:25:59.105Z,96270.97
2023-04-18T02:36:02.814Z,96269.28
2023-04-18T02:46:05.613Z,96267.81
2023-04-18T02:56:11.747Z,96264.56
2023-04-18T03:06:14.256Z,96269.22
2023-04-18T03:16:19.183Z,96246.88
2023-04-18T03:26:21.759Z,96261.84
2023-04-18T03:36:27.258Z,96258.72
2023-04-18T03:46:29.881Z,96260.56
2023-04-18T03:56:34.157Z,96253.78
2023-04-18T04:06:36.560Z,96247.72
2023-04-18T04:16:40.522Z,96274.44
2023-04-18T04:26:43.300Z,96259.63
2023-04-18T04:36:47.993Z,96261.88
2023-04-18T04:46:50.608Z,96261.06
2023-04-18T04:56:54.430Z,96258.94
2023-04-18T05:06:57.420Z,96266.78
2023-04-18T05:17:01.294Z,96276.06
2023-04-18T05:27:03.815Z,96273.03
2023-04-18T05:37:07.652Z,96279.41
2023-04-18T05:47:10.078Z,96285.84
2023-04-18T05:57:14.063Z,96277.72
2023-04-18T06:07:16.546Z,96295.28
2023-04-18T06:17:21.325Z,96303.34
2023-04-18T06:27:31.164Z,96315.13
2023-04-18T06:37:35.872Z,96304.63
2023-04-18T06:47:38.458Z,96297.81
2023-04-18T06:57:42.619Z,96299.78
2023-04-18T07:07:45.068Z,96310.81
2023-04-18T07:17:48.915Z,96309.97
2023-04-18T07:27:51.430Z,96316.22
2023-04-18T07:37:55.481Z,96323.91
2023-04-18T07:47:57.970Z,96333.31
2023-04-18T07:58:01.739Z,96336.75
2023-04-18T08:08:04.116Z,96345.63
2023-04-18T08:18:07.986Z,96347.59
2023-04-18T08:28:10.868Z,96357.34
2023-04-18T08:38:14.741Z,96350.53
2023-04-18T08:48:17.609Z,96373.53
2023-04-18T08:58:23.403Z,96373.88
2023-04-18T09:08:25.794Z,96372.84
2023-04-18T09:18:30.772Z,96364.41
2023-04-18T09:28:34.022Z,96372.41
2023-04-18T09:38:41.460Z,96368.91
2023-04-18T09:48:43.999Z,96376.31
2023-04-18T09:58:48.284Z,96362.97
2023-04-18T10:08:52.476Z,96351.09
2023-04-18T10:18:56.451Z,96355.63
2023-04-18T10:28:59.394Z,96359.03
2023-04-18T10:39:20.425Z,96356.03
2023-04-18T10:49:25.916Z,96350.44
2023-04-18T10:59:31.753Z,96356.22
2023-04-18T11:09:34.394Z,96354.78
2023-04-18T11:19:38.122Z,96346.69
2023-04-18T11:29:40.541Z,96347.31
2023-04-18T11:39:44.801Z,96354.50
2023-04-18T11:49:47.194Z,96339.81
2023-04-18T11:59:51.885Z,96363.38
2023-04-18T12:09:54.421Z,96365.28
2023-04-18T12:20:02.022Z,96347.94
2023-04-18T12:30:04.798Z,96349.53
2023-04-18T12:40:10.806Z,96345.88
2023-04-18T12:50:17.276Z,96334.97
2023-04-18T13:00:23.224Z,96342.31
2023-04-18T13:10:26.625Z,96348.13
2023-04-18T13:20:30.570Z,96354.84
2023-04-18T13:30:35.578Z,96347.00
2023-04-18T13:40:39.778Z,96351.94
2023-04-18T13:50:42.764Z,96343.44
2023-04-18T14:00:46.599Z,96347.41
2023-04-18T14:10:49.121Z,96357.16
2023-04-18T14:20:53.367Z,96356.78
2023-04-18T14:30:57.941Z,96362.31
2023-04-18T14:41:01.888Z,96357.91
2023-04-18T14:51:04.390Z,96360.81
2023-04-18T15:01:08.105Z,96357.69
2023-04-18T15:11:11.274Z,96367.44
2023-04-18T15:21:15.056Z,96364.44
2023-04-18T15:31:17.917Z,96371.81
2023-04-18T15:41:21.954Z,96366.91
2023-04-18T15:51:28.305Z,96368.41
2023-04-18T16:01:32.187Z,96378.13
2023-04-18T16:11:34.591Z,96376.84
2023-04-18T16:21:38.324Z,96379.72
2023-04-18T16:31:41.508Z,96377.91
2023-04-18T16:41:45.344Z,96385.50
2023-04-18T16:51:47.753Z,96384.59
2023-04-18T17:01:51.540Z,96381.44
2023-04-18T17:11:53.983Z,96384.94
2023-04-18T17:21:57.706Z,96396.44
2023-04-18T17:32:00.173Z,96396.88
2023-04-18T17:42:04.039Z,96394.09
2023-04-18T17:52:06.597Z,96405.97
2023-04-18T18:02:11.674Z,96419.03
2023-04-18T18:12:14.156Z,96420.88
2023-04-18T18:22:18.323Z,96429.00
2023-04-18T18:32:21.638Z,96429.50
2023-04-18T18:42:25.413Z,96444.53
2023-04-18T18:52:29.657Z,96447.06
2023-04-18T19:02:33.616Z,96452.91
2023-04-18T19:12:36.309Z,96460.81
2023-04-18T19:22:40.424Z,96466.09
2023-04-18T19:32:43.100Z,96475.50
2023-04-18T19:42:46.906Z,96478.53
2023-04-18T19:52:49.401Z,96481.66
2023-04-18T20:02:53.409Z,96482.13
2023-04-18T20:12:55.985Z,96482.13
2023-04-18T20:23:01.614Z,96481.53
2023-04-18T20:33:04.047Z,96488.53
2023-04-18T20:43:08.092Z,96487.75
2023-04-18T20:53:10.666Z,96490.34
2023-04-18T21:03:15.194Z,96494.38
2023-04-18T21:13:17.817Z,96498.34
2023-04-18T21:23:21.556Z,96494.91
2023-04-18T21:33:24.522Z,96502.16
2023-04-18T21:43:28.276Z,96501.19
2023-04-18T21:53:30.665Z,96504.84
2023-04-18T22:03:34.942Z,96492.25
2023-04-18T22:13:37.425Z,96498.16
2023-04-18T22:23:41.332Z,96497.13
2023-04-18T22:33:43.725Z,96502.72
2023-04-18T22:43:47.470Z,96508.31
2023-04-18T22:53:49.884Z,96508.47
2023-04-18T23:03:53.760Z,96502.47
2023-04-18T23:13:56.295Z,96510.34
2023-04-18T23:24:00.263Z,96505.88
2023-04-18T23:34:02.666Z,96506.25
2023-04-18T23:44:06.774Z,96502.25
2023-04-18T23:54:09.269Z,96507.22
